Time;durP1;ratioP1;P1;durP2;ratioP2;P2;SDS_P1;SDS_P2;PMS_P1;PMS_P2;Temp;Humidity;BMP_temperature;BMP_pressure;BME280_temperature;BME280_humidity;BME280_pressure;Samples;Min_cycle;Max_cycle;Signal;HPM_P1;HPM_P2
2021/08/09 00:01:56;;;;;;;12.15;4.07;;;;;;;;;;5034562;28;20049;-66
2021/08/09 00:04:41;;;;;;;10.73;4.78;;;;;;;;;;5034420;28;20061;-66
2021/08/09 00:07:27;;;;;;;12.98;4.10;;;;;;;;;;5034455;28;20041;-66
2021/08/09 00:10:12;;;;;;;12.60;4.10;;;;;;;;;;5041081;28;20128;-66
2021/08/09 00:12:58;;;;;;;9.02;4.00;;;;;;;;;;5054478;28;20052;-66
2021/08/09 00:15:43;;;;;;;10.23;3.70;;;;;;;;;;5032559;28;20053;-66
2021/08/09 00:18:29;;;;;;;10.70;4.65;;;;;;;;;;5034114;28;20095;-66
2021/08/09 00:21:15;;;;;;;9.00;4.65;;;;;;;;;;5046363;28;20486;-66
2021/08/09 00:24:00;;;;;;;10.50;4.15;;;;;;;;;;5053882;28;20041;-66
2021/08/09 00:26:45;;;;;;;11.90;4.43;;;;;;;;;;5054007;28;20080;-66
2021/08/09 00:29:31;;;;;;;11.57;4.50;;;;;;;;;;5040449;28;20061;-66
2021/08/09 00:32:18;;;;;;;9.38;4.20;;;;;;;;;;5033998;28;20049;-66
2021/08/09 00:35:04;;;;;;;16.48;4.57;;;;;;;;;;5032644;28;20415;-66
2021/08/09 00:37:49;;;;;;;7.57;3.72;;;;;;;;;;5032776;28;20492;-66
2021/08/09 00:40:34;;;;;;;10.52;3.97;;;;;;;;;;5050325;28;20049;-66
2021/08/09 00:43:22;;;;;;;11.20;4.45;;;;;;;;;;5052741;28;20124;-66
2021/08/09 00:46:09;;;;;;;9.98;4.15;;;;;;;;;;5052712;28;20060;-66
2021/08/09 00:48:59;;;;;;;10.55;4.43;;;;;;;;;;5049415;28;20456;-66
2021/08/09 00:51:45;;;;;;;14.05;4.65;;;;;;;;;;5032660;28;20046;-66
2021/08/09 00:54:31;;;;;;;13.52;4.53;;;;;;;;;;5018744;28;20050;-66
2021/08/09 00:57:17;;;;;;;7.90;4.03;;;;;;;;;;5018887;28;20053;-66
2021/08/09 01:00:03;;;;;;;11.82;4.28;;;;;;;;;;5038566;28;20163;-66
2021/08/09 01:02:50;;;;;;;12.02;4.43;;;;;;;;;;5052709;28;20045;-66
2021/08/09 01:05:36;;;;;;;12.57;4.80;;;;;;;;;;5052088;28;20049;-66
2021/08/09 01:08:24;;;;;;;12.05;4.40;;;;;;;;;;5053440;28;20073;-66
2021/08/09 01:11:17;;;;;;;11.07;4.85;;;;;;;;;;5050681;28;20398;-66
2021/08/09 01:14:17;;;;;;;13.45;4.90;;;;;;;;;;5039281;28;20072;-66
2021/08/09 01:17:03;;;;;;;10.88;4.45;;;;;;;;;;5052307;28;20052;-66
2021/08/09 01:19:52;;;;;;;10.50;4.68;;;;;;;;;;5037262;28;20126;-66
2021/08/09 01:22:45;;;;;;;9.93;4.57;;;;;;;;;;5051162;28;20495;-66
2021/08/09 01:25:42;;;;;;;13.90;5.20;;;;;;;;;;5028456;28;20515;-66
2021/08/09 01:28:29;;;;;;;14.82;5.40;;;;;;;;;;5038134;28;20051;-66
2021/08/09 01:31:15;;;;;;;10.63;4.82;;;;;;;;;;5036141;28;20056;-66
2021/08/09 01:34:01;;;;;;;14.77;4.60;;;;;;;;;;5037586;28;20143;-66
2021/08/09 01:36:47;;;;;;;12.32;4.47;;;;;;;;;;5037895;28;20049;-66
2021/08/09 01:39:33;;;;;;;11.25;4.53;;;;;;;;;;5037803;28;20040;-66
2021/08/09 01:42:18;;;;;;;13.88;4.60;;;;;;;;;;5034058;28;20052;-66
2021/08/09 01:45:05;;;;;;;8.93;4.13;;;;;;;;;;5034053;28;20510;-66
2021/08/09 01:47:51;;;;;;;14.43;4.90;;;;;;;;;;5012036;28;20042;-66
2021/08/09 01:50:38;;;;;;;15.65;4.57;;;;;;;;;;5012020;28;20457;-66
2021/08/09 01:53:25;;;;;;;14.68;5.45;;;;;;;;;;5030914;28;20041;-66
2021/08/09 01:56:12;;;;;;;15.43;4.47;;;;;;;;;;5017751;28;20052;-66
2021/08/09 01:58:57;;;;;;;13.52;4.32;;;;;;;;;;5031324;28;20423;-66
2021/08/09 02:01:42;;;;;;;17.52;4.82;;;;;;;;;;5010552;28;20408;-66
2021/08/09 02:04:28;;;;;;;14.27;4.55;;;;;;;;;;5011253;28;20064;-66
2021/08/09 02:07:14;;;;;;;17.55;5.15;;;;;;;;;;5012606;28;20488;-66
2021/08/09 02:10:01;;;;;;;16.63;4.43;;;;;;;;;;5014639;28;20088;-66
2021/08/09 02:12:52;;;;;;;11.60;5.13;;;;;;;;;;5036634;28;20053;-66
2021/08/09 02:15:38;;;;;;;12.68;4.70;;;;;;;;;;5050622;28;20071;-66
2021/08/09 02:18:31;;;;;;;12.38;4.03;;;;;;;;;;5051320;28;20052;-66
2021/08/09 02:21:20;;;;;;;15.55;6.13;;;;;;;;;;5033059;28;20053;-66
2021/08/09 02:24:06;;;;;;;13.25;4.65;;;;;;;;;;5036804;28;20519;-66
2021/08/09 02:26:57;;;;;;;11.50;4.57;;;;;;;;;;5037525;28;20049;-66
2021/08/09 02:29:44;;;;;;;15.48;5.35;;;;;;;;;;5037130;28;20056;-66
2021/08/09 02:32:30;;;;;;;19.52;6.45;;;;;;;;;;5049455;28;20053;-66
2021/08/09 02:35:18;;;;;;;11.73;5.55;;;;;;;;;;5037119;28;20122;-66
2021/08/09 02:38:07;;;;;;;13.80;5.40;;;;;;;;;;5037915;28;20152;-66
2021/08/09 02:40:53;;;;;;;12.25;5.60;;;;;;;;;;5036552;28;20445;-66
2021/08/09 02:43:39;;;;;;;15.63;5.97;;;;;;;;;;5033534;28;20052;-65
2021/08/09 02:46:24;;;;;;;14.85;5.85;;;;;;;;;;5037664;28;20415;-66
2021/08/09 02:49:10;;;;;;;13.38;5.30;;;;;;;;;;5051179;28;20526;-66
2021/08/09 02:51:57;;;;;;;12.88;5.10;;;;;;;;;;5049893;28;20037;-66
2021/08/09 02:54:45;;;;;;;14.43;5.60;;;;;;;;;;5049873;28;20045;-66
2021/08/09 02:57:31;;;;;;;19.73;6.00;;;;;;;;;;5051286;28;20056;-66
2021/08/09 03:00:16;;;;;;;16.45;5.97;;;;;;;;;;5037361;28;20443;-66
2021/08/09 03:03:04;;;;;;;18.50;7.07;;;;;;;;;;5035494;28;20049;-66
2021/08/09 03:05:50;;;;;;;18.45;6.05;;;;;;;;;;5037147;28;20044;-65
2021/08/09 03:08:35;;;;;;;13.20;5.40;;;;;;;;;;5051407;28;20064;-66
2021/08/09 03:11:22;;;;;;;17.70;6.85;;;;;;;;;;5051364;28;20052;-66
2021/08/09 03:14:08;;;;;;;16.20;6.30;;;;;;;;;;5048784;28;20049;-66
2021/08/09 03:16:54;;;;;;;17.58;6.40;;;;;;;;;;5048644;22;20136;-65
2021/08/09 03:19:39;;;;;;;15.95;6.95;;;;;;;;;;5058758;28;20131;-65
2021/08/09 03:22:25;;;;;;;16.42;6.75;;;;;;;;;;5030642;28;20104;-65
2021/08/09 03:25:11;;;;;;;17.45;6.68;;;;;;;;;;5053807;28;20554;-66
2021/08/09 03:27:58;;;;;;;14.45;6.47;;;;;;;;;;5054186;28;20045;-65
2021/08/09 03:30:44;;;;;;;21.15;6.07;;;;;;;;;;5054063;28;20123;-65
2021/08/09 03:33:30;;;;;;;19.00;7.60;;;;;;;;;;5052535;28;20040;-65
2021/08/09 03:36:15;;;;;;;16.52;6.30;;;;;;;;;;5053909;28;20063;-66
2021/08/09 03:39:00;;;;;;;20.02;6.07;;;;;;;;;;5053821;28;20072;-65
2021/08/09 03:41:45;;;;;;;18.20;6.10;;;;;;;;;;5053947;28;20049;-65
2021/08/09 03:44:30;;;;;;;17.85;6.63;;;;;;;;;;5053055;28;20037;-65
2021/08/09 03:47:16;;;;;;;22.10;6.43;;;;;;;;;;5053696;28;20514;-66
2021/08/09 03:50:01;;;;;;;17.92;6.60;;;;;;;;;;5053678;28;20418;-66
2021/08/09 03:52:50;;;;;;;17.35;6.07;;;;;;;;;;5053719;28;20063;-65
2021/08/09 03:55:36;;;;;;;15.85;7.15;;;;;;;;;;5032799;28;20176;-66
2021/08/09 03:58:21;;;;;;;16.90;6.90;;;;;;;;;;5034566;28;20519;-65
2021/08/09 04:01:07;;;;;;;21.63;6.88;;;;;;;;;;5034530;28;20104;-65
2021/08/09 04:03:53;;;;;;;15.82;6.18;;;;;;;;;;5034948;28;20511;-65
2021/08/09 04:06:38;;;;;;;19.73;5.82;;;;;;;;;;5039332;28;20072;-65
2021/08/09 04:09:24;;;;;;;14.60;6.55;;;;;;;;;;5054255;28;20504;-65
2021/08/09 04:12:10;;;;;;;18.67;6.35;;;;;;;;;;5054212;28;20072;-65
2021/08/09 04:14:56;;;;;;;12.85;6.28;;;;;;;;;;5046234;28;20037;-66
2021/08/09 04:17:44;;;;;;;17.15;6.10;;;;;;;;;;5033289;28;20053;-66
2021/08/09 04:20:29;;;;;;;20.88;7.07;;;;;;;;;;5033142;28;20051;-65
2021/08/09 04:23:16;;;;;;;19.35;6.05;;;;;;;;;;5033348;28;20079;-65
2021/08/09 04:26:02;;;;;;;17.38;7.13;;;;;;;;;;5031892;28;20045;-66
2021/08/09 04:28:47;;;;;;;17.42;6.32;;;;;;;;;;5033191;28;20042;-65
2021/08/09 04:31:34;;;;;;;19.23;6.57;;;;;;;;;;5027157;28;20453;-65
2021/08/09 04:34:19;;;;;;;16.02;6.45;;;;;;;;;;5027044;28;20054;-66
2021/08/09 04:37:04;;;;;;;18.85;6.20;;;;;;;;;;5031477;28;20041;-66
2021/08/09 04:39:49;;;;;;;15.18;6.40;;;;;;;;;;5033117;28;20049;-65
2021/08/09 04:42:38;;;;;;;18.83;6.20;;;;;;;;;;5033836;28;20502;-65
2021/08/09 04:45:26;;;;;;;17.17;6.03;;;;;;;;;;5046963;28;20045;-65
2021/08/09 04:48:16;;;;;;;16.80;6.72;;;;;;;;;;5052651;28;20048;-65
2021/08/09 04:51:01;;;;;;;21.23;7.57;;;;;;;;;;5053640;28;20415;-65
2021/08/09 04:53:47;;;;;;;12.50;5.88;;;;;;;;;;5052060;28;20045;-68
2021/08/09 04:56:35;;;;;;;15.98;5.97;;;;;;;;;;5025214;28;20041;-65
2021/08/09 04:59:21;;;;;;;15.45;5.57;;;;;;;;;;5052426;28;20049;-66
2021/08/09 05:02:07;;;;;;;15.93;6.22;;;;;;;;;;5051955;28;20445;-65
2021/08/09 05:04:53;;;;;;;16.95;5.90;;;;;;;;;;5044940;28;20052;-65
2021/08/09 05:07:38;;;;;;;13.68;6.50;;;;;;;;;;5033274;28;20053;-65
2021/08/09 05:10:24;;;;;;;15.43;6.22;;;;;;;;;;5032138;28;20573;-65
2021/08/09 05:13:10;;;;;;;13.18;7.05;;;;;;;;;;5032346;28;20053;-66
2021/08/09 05:15:56;;;;;;;18.02;6.35;;;;;;;;;;5042082;28;20099;-66
2021/08/09 05:18:41;;;;;;;13.70;5.82;;;;;;;;;;5052905;28;20498;-65
2021/08/09 05:21:28;;;;;;;15.98;6.63;;;;;;;;;;5053040;28;20048;-66
2021/08/09 05:24:15;;;;;;;12.88;5.80;;;;;;;;;;5051668;28;20507;-66
2021/08/09 05:27:00;;;;;;;22.00;6.93;;;;;;;;;;5051031;28;20045;-66
2021/08/09 05:29:46;;;;;;;18.58;6.20;;;;;;;;;;5051927;28;20041;-65
2021/08/09 05:32:31;;;;;;;16.00;5.55;;;;;;;;;;5052748;28;20049;-66
2021/08/09 05:35:16;;;;;;;18.52;6.63;;;;;;;;;;5050968;28;20048;-65
2021/08/09 05:38:03;;;;;;;19.25;7.05;;;;;;;;;;5051881;28;20055;-66
2021/08/09 05:40:49;;;;;;;15.77;7.38;;;;;;;;;;5037466;28;20041;-66
2021/08/09 05:43:35;;;;;;;16.02;6.18;;;;;;;;;;5051242;28;20041;-66
2021/08/09 05:46:21;;;;;;;16.83;5.68;;;;;;;;;;5033436;28;20124;-67
2021/08/09 05:49:06;;;;;;;16.52;5.75;;;;;;;;;;5031523;28;20048;-66
2021/08/09 05:51:52;;;;;;;14.13;5.65;;;;;;;;;;5031294;28;20534;-65
2021/08/09 05:54:37;;;;;;;13.57;5.28;;;;;;;;;;5032082;28;20116;-66
2021/08/09 05:57:23;;;;;;;14.40;5.45;;;;;;;;;;5030720;28;20117;-66
2021/08/09 06:00:08;;;;;;;24.20;6.60;;;;;;;;;;5031041;28;20423;-65
2021/08/09 06:03:12;;;;;;;16.40;7.00;;;;;;;;;;5031221;28;20052;-66
2021/08/09 06:06:06;;;;;;;18.92;6.22;;;;;;;;;;5045031;28;20045;-66
2021/08/09 06:08:59;;;;;;;17.42;5.97;;;;;;;;;;5011546;28;20049;-66
2021/08/09 06:11:44;;;;;;;18.98;6.90;;;;;;;;;;5026350;28;20454;-66
2021/08/09 06:14:31;;;;;;;16.92;6.32;;;;;;;;;;5050727;28;20041;-66
2021/08/09 06:17:17;;;;;;;19.65;7.25;;;;;;;;;;5044453;28;20369;-65
2021/08/09 06:20:03;;;;;;;14.85;6.03;;;;;;;;;;5032335;28;20134;-66
2021/08/09 06:22:49;;;;;;;19.58;5.70;;;;;;;;;;5031064;28;20049;-65
2021/08/09 06:25:35;;;;;;;17.77;6.97;;;;;;;;;;5029858;28;20049;-66
2021/08/09 06:28:20;;;;;;;18.98;6.05;;;;;;;;;;5031175;28;20056;-66
2021/08/09 06:31:07;;;;;;;17.20;6.15;;;;;;;;;;5030993;28;20052;-66
2021/08/09 06:33:53;;;;;;;18.95;5.32;;;;;;;;;;5030718;28;20068;-65
2021/08/09 06:36:43;;;;;;;17.50;5.97;;;;;;;;;;5036916;28;20045;-65
2021/08/09 06:39:29;;;;;;;17.40;6.10;;;;;;;;;;5033782;28;20044;-66
2021/08/09 06:42:14;;;;;;;11.32;6.05;;;;;;;;;;5030673;28;20052;-65
2021/08/09 06:45:03;;;;;;;14.15;5.28;;;;;;;;;;5042992;28;20123;-65
2021/08/09 06:47:49;;;;;;;19.73;6.63;;;;;;;;;;5030860;28;20046;-66
2021/08/09 06:50:35;;;;;;;16.95;5.50;;;;;;;;;;5029610;28;20046;-66
2021/08/09 06:53:21;;;;;;;14.90;5.10;;;;;;;;;;5030864;28;20077;-66
2021/08/09 06:56:06;;;;;;;15.27;5.63;;;;;;;;;;5030724;28;20504;-65
2021/08/09 06:58:52;;;;;;;14.63;4.53;;;;;;;;;;5030518;28;20124;-66
2021/08/09 07:01:37;;;;;;;10.73;4.88;;;;;;;;;;5042458;28;20044;-66
2021/08/09 07:04:24;;;;;;;16.25;5.32;;;;;;;;;;5054368;28;20045;-66
2021/08/09 07:07:09;;;;;;;14.68;5.43;;;;;;;;;;5034331;28;20499;-66
2021/08/09 07:09:56;;;;;;;14.52;4.60;;;;;;;;;;5034477;28;20176;-66
2021/08/09 07:12:42;;;;;;;18.67;5.35;;;;;;;;;;5033571;28;20183;-65
2021/08/09 07:15:27;;;;;;;16.13;5.18;;;;;;;;;;5033046;28;20492;-66
2021/08/09 07:18:15;;;;;;;11.63;4.32;;;;;;;;;;5034474;28;20136;-65
2021/08/09 07:21:01;;;;;;;14.90;5.00;;;;;;;;;;5034355;28;20049;-66
2021/08/09 07:23:47;;;;;;;12.52;4.85;;;;;;;;;;5033945;28;20403;-65
2021/08/09 07:26:32;;;;;;;11.13;4.53;;;;;;;;;;5034405;28;20127;-65
2021/08/09 07:29:18;;;;;;;19.17;5.05;;;;;;;;;;5034273;28;20053;-66
2021/08/09 07:32:05;;;;;;;12.82;4.47;;;;;;;;;;5034054;28;20049;-65
2021/08/09 07:34:50;;;;;;;13.60;4.47;;;;;;;;;;5033940;28;20057;-66
2021/08/09 07:37:35;;;;;;;16.42;4.63;;;;;;;;;;5033047;28;20052;-65
2021/08/09 07:40:21;;;;;;;12.88;3.95;;;;;;;;;;5034989;28;20080;-65
2021/08/09 07:43:07;;;;;;;15.02;5.22;;;;;;;;;;5034103;28;20052;-65
2021/08/09 07:45:53;;;;;;;13.45;4.78;;;;;;;;;;5033836;28;20049;-65
2021/08/09 07:48:38;;;;;;;21.63;5.45;;;;;;;;;;5051041;28;20057;-66
2021/08/09 07:51:23;;;;;;;15.52;4.60;;;;;;;;;;5050899;28;20067;-65
2021/08/09 07:54:09;;;;;;;15.23;4.13;;;;;;;;;;5053391;28;20052;-66
2021/08/09 07:57:00;;;;;;;10.25;4.47;;;;;;;;;;5053514;28;20048;-65
2021/08/09 07:59:46;;;;;;;16.17;4.30;;;;;;;;;;5053614;28;20041;-65
2021/08/09 08:02:32;;;;;;;15.75;4.78;;;;;;;;;;5014758;28;20053;-65
2021/08/09 08:05:17;;;;;;;12.27;4.28;;;;;;;;;;5014436;28;20061;-65
2021/08/09 08:08:03;;;;;;;15.38;4.22;;;;;;;;;;5013764;28;20181;-66
2021/08/09 08:10:49;;;;;;;17.35;3.80;;;;;;;;;;5017081;28;20381;-65
2021/08/09 08:13:34;;;;;;;12.23;3.88;;;;;;;;;;5034098;28;20049;-65
2021/08/09 08:16:20;;;;;;;14.95;3.75;;;;;;;;;;5033181;28;20042;-66
2021/08/09 08:19:05;;;;;;;18.23;4.47;;;;;;;;;;5034381;28;20045;-66
2021/08/09 08:21:50;;;;;;;12.77;4.13;;;;;;;;;;5042343;28;20037;-66
2021/08/09 08:24:36;;;;;;;15.38;4.15;;;;;;;;;;5052844;28;20126;-65
2021/08/09 08:27:21;;;;;;;11.07;4.03;;;;;;;;;;5054140;28;20048;-65
2021/08/09 08:30:07;;;;;;;14.10;4.05;;;;;;;;;;5053978;28;20041;-65
2021/08/09 08:32:53;;;;;;;9.98;3.58;;;;;;;;;;5036633;28;20133;-65
2021/08/09 08:35:39;;;;;;;10.90;3.40;;;;;;;;;;5052566;28;20144;-66
2021/08/09 08:38:24;;;;;;;11.27;3.03;;;;;;;;;;5053805;28;20120;-66
2021/08/09 08:41:09;;;;;;;13.85;3.90;;;;;;;;;;5052473;28;20041;-66
2021/08/09 08:43:57;;;;;;;11.10;3.53;;;;;;;;;;5020420;28;20560;-65
2021/08/09 08:46:43;;;;;;;10.60;3.50;;;;;;;;;;5035764;28;20041;-66
2021/08/09 08:49:29;;;;;;;8.93;3.70;;;;;;;;;;5033419;28;20516;-65
2021/08/09 08:52:16;;;;;;;14.00;3.80;;;;;;;;;;5012406;28;20053;-67
2021/08/09 08:55:02;;;;;;;10.52;3.72;;;;;;;;;;5012600;28;20053;-66
2021/08/09 08:57:47;;;;;;;12.27;3.55;;;;;;;;;;5013749;28;20053;-66
2021/08/09 09:00:38;;;;;;;12.57;3.65;;;;;;;;;;5018976;28;20052;-74
2021/08/09 09:03:25;;;;;;;10.23;2.72;;;;;;;;;;5053279;28;20056;-77
2021/08/09 09:06:10;;;;;;;13.18;3.72;;;;;;;;;;5053437;28;20151;-78
2021/08/09 09:08:56;;;;;;;9.23;3.22;;;;;;;;;;5052192;28;20120;-76
2021/08/09 09:11:41;;;;;;;11.00;2.80;;;;;;;;;;5041419;28;20049;-76
2021/08/09 09:14:29;;;;;;;12.10;2.88;;;;;;;;;;5033187;28;20052;-76
2021/08/09 09:17:15;;;;;;;9.25;2.88;;;;;;;;;;5045169;22;20045;-72
2021/08/09 09:20:00;;;;;;;9.50;3.33;;;;;;;;;;5031799;28;20042;-73
2021/08/09 09:22:45;;;;;;;10.57;3.83;;;;;;;;;;5031196;28;20534;-71
2021/08/09 09:25:31;;;;;;;7.35;2.85;;;;;;;;;;5047788;28;20041;-71
2021/08/09 09:28:30;;;;;;;8.95;2.55;;;;;;;;;;5031983;28;20045;-72
2021/08/09 09:31:26;;;;;;;8.70;2.30;;;;;;;;;;5031340;28;20049;-72
2021/08/09 09:34:15;;;;;;;7.85;2.13;;;;;;;;;;5032087;28;20483;-71
2021/08/09 09:37:00;;;;;;;8.02;2.03;;;;;;;;;;5042704;28;20505;-72
2021/08/09 09:39:45;;;;;;;4.40;2.03;;;;;;;;;;5052087;28;20045;-71
2021/08/09 09:42:34;;;;;;;6.30;1.73;;;;;;;;;;5052499;28;20037;-72
2021/08/09 09:45:30;;;;;;;4.88;1.52;;;;;;;;;;5052042;28;20044;-71
2021/08/09 09:48:16;;;;;;;6.18;1.45;;;;;;;;;;5050369;28;20041;-71
2021/08/09 09:51:11;;;;;;;4.88;1.38;;;;;;;;;;5051878;28;20045;-71
2021/08/09 09:53:56;;;;;;;12.15;5.13;;;;;;;;;;5051994;28;20048;-71
2021/08/09 09:56:43;;;;;;;5.05;1.80;;;;;;;;;;5050331;28;20487;-71
2021/08/09 09:59:29;;;;;;;5.85;1.55;;;;;;;;;;5051812;28;20048;-70
2021/08/09 10:02:14;;;;;;;8.02;3.72;;;;;;;;;;5050346;28;20045;-71
2021/08/09 10:05:00;;;;;;;3.08;1.40;;;;;;;;;;5051725;28;20044;-71
2021/08/09 10:07:47;;;;;;;8.98;1.80;;;;;;;;;;5050305;28;20064;-71
2021/08/09 10:10:32;;;;;;;5.03;1.70;;;;;;;;;;5051623;28;20044;-71
2021/08/09 10:13:18;;;;;;;5.03;1.38;;;;;;;;;;5051769;28;20134;-70
2021/08/09 10:16:05;;;;;;;4.35;1.30;;;;;;;;;;5051578;28;20060;-70
2021/08/09 10:18:52;;;;;;;4.35;1.10;;;;;;;;;;5036732;28;20045;-70
2021/08/09 10:21:38;;;;;;;5.53;1.10;;;;;;;;;;5050670;28;20044;-71
2021/08/09 10:24:39;;;;;;;4.82;1.40;;;;;;;;;;5046740;28;20051;-72
2021/08/09 10:27:43;;;;;;;3.28;1.30;;;;;;;;;;5045585;28;20052;-71
2021/08/09 10:30:34;;;;;;;3.70;1.17;;;;;;;;;;5047047;28;20069;-71
2021/08/09 10:33:39;;;;;;;4.28;1.30;;;;;;;;;;5050938;28;20491;-72
2021/08/09 10:36:25;;;;;;;3.65;1.05;;;;;;;;;;5051591;28;20288;-71
2021/08/09 10:39:11;;;;;;;1.88;0.77;;;;;;;;;;5049150;28;20071;-71
2021/08/09 10:41:57;;;;;;;3.47;0.93;;;;;;;;;;5036900;28;20253;-71
2021/08/09 10:44:48;;;;;;;5.00;0.90;;;;;;;;;;5030488;28;20099;-70
2021/08/09 10:47:46;;;;;;;3.25;0.85;;;;;;;;;;5030816;28;20072;-71
2021/08/09 10:50:38;;;;;;;2.53;0.93;;;;;;;;;;5031506;28;20048;-70
2021/08/09 10:53:28;;;;;;;1.83;1.08;;;;;;;;;;5031568;28;20126;-70
2021/08/09 10:56:44;;;;;;;2.78;1.23;;;;;;;;;;5031330;28;20061;-72
2021/08/09 10:59:38;;;;;;;4.18;1.35;;;;;;;;;;5016032;28;20160;-72
2021/08/09 11:02:26;;;;;;;5.65;1.40;;;;;;;;;;5031318;28;20044;-73
2021/08/09 11:05:15;;;;;;;4.32;1.30;;;;;;;;;;5030420;28;20045;-73
2021/08/09 11:08:23;;;;;;;4.03;1.67;;;;;;;;;;5029581;28;20041;-73
2021/08/09 11:11:12;;;;;;;7.80;1.80;;;;;;;;;;5030358;28;20050;-73
2021/08/09 11:13:57;;;;;;;5.22;1.35;;;;;;;;;;5031263;28;20123;-73
2021/08/09 11:16:43;;;;;;;6.05;1.33;;;;;;;;;;5031354;28;20175;-73
2021/08/09 11:19:29;;;;;;;4.97;1.38;;;;;;;;;;5030269;28;20656;-73
2021/08/09 11:22:18;;;;;;;6.03;1.60;;;;;;;;;;5031069;28;20065;-71
2021/08/09 11:25:03;;;;;;;3.58;1.80;;;;;;;;;;5031042;28;20072;-71
2021/08/09 11:28:05;;;;;;;4.32;1.58;;;;;;;;;;5030845;28;20124;-70
2021/08/09 11:30:50;;;;;;;2.63;1.20;;;;;;;;;;5011031;28;20042;-71
2021/08/09 11:33:39;;;;;;;2.63;1.10;;;;;;;;;;5009389;28;20104;-71
2021/08/09 11:36:24;;;;;;;5.07;1.10;;;;;;;;;;5010627;28;20042;-71
2021/08/09 11:39:09;;;;;;;5.30;1.08;;;;;;;;;;5018499;28;20509;-71
2021/08/09 11:41:55;;;;;;;3.33;1.02;;;;;;;;;;5030392;28;20048;-71
2021/08/09 11:44:40;;;;;;;4.45;1.52;;;;;;;;;;5031153;28;20045;-72
2021/08/09 11:47:25;;;;;;;2.22;1.02;;;;;;;;;;5033849;28;20100;-71
2021/08/09 11:50:11;;;;;;;3.45;1.60;;;;;;;;;;5033038;28;20041;-71
2021/08/09 11:52:56;;;;;;;4.25;1.38;;;;;;;;;;5034837;28;20064;-71
2021/08/09 11:55:41;;;;;;;3.63;1.40;;;;;;;;;;5034465;28;20045;-71
2021/08/09 11:58:30;;;;;;;6.82;1.20;;;;;;;;;;5033662;28;20038;-71
2021/08/09 12:01:22;;;;;;;4.60;1.17;;;;;;;;;;5033920;28;20103;-71
2021/08/09 12:04:12;;;;;;;2.88;0.90;;;;;;;;;;5033471;28;20047;-72
2021/08/09 12:06:58;;;;;;;4.85;1.35;;;;;;;;;;5042245;28;20041;-71
2021/08/09 12:09:44;;;;;;;3.70;1.25;;;;;;;;;;5049259;28;20072;-71
2021/08/09 12:12:36;;;;;;;5.97;1.80;;;;;;;;;;5046795;28;20527;-71
2021/08/09 12:15:23;;;;;;;5.00;1.80;;;;;;;;;;5033585;28;20492;-71
2021/08/09 12:18:10;;;;;;;4.03;1.60;;;;;;;;;;5034206;28;20132;-71
2021/08/09 12:21:15;;;;;;;4.25;1.40;;;;;;;;;;5033758;28;20049;-71
2021/08/09 12:24:00;;;;;;;4.75;1.70;;;;;;;;;;5032828;28;20052;-71
2021/08/09 12:26:45;;;;;;;3.33;1.60;;;;;;;;;;5033660;28;20099;-71
2021/08/09 12:29:31;;;;;;;6.47;2.10;;;;;;;;;;5033761;28;20091;-71
2021/08/09 12:32:17;;;;;;;5.47;1.88;;;;;;;;;;5031343;28;20068;-71
2021/08/09 12:35:02;;;;;;;7.25;1.75;;;;;;;;;;5033980;28;20052;-72
2021/08/09 12:37:55;;;;;;;5.32;1.77;;;;;;;;;;5034241;28;20045;-72
2021/08/09 12:40:41;;;;;;;7.33;1.73;;;;;;;;;;5031798;28;20055;-73
2021/08/09 12:43:26;;;;;;;5.30;2.00;;;;;;;;;;5032981;28;20041;-73
2021/08/09 12:46:12;;;;;;;5.72;1.92;;;;;;;;;;5033476;28;20049;-72
2021/08/09 12:48:57;;;;;;;6.30;1.73;;;;;;;;;;5033141;28;20044;-73
2021/08/09 12:51:42;;;;;;;4.85;1.45;;;;;;;;;;5031464;28;20407;-72
2021/08/09 12:54:29;;;;;;;6.82;4.53;;;;;;;;;;5032985;28;20046;-63
2021/08/09 12:57:14;;;;;;;6.20;2.22;;;;;;;;;;5032682;28;20049;-63
2021/08/09 13:00:00;;;;;;;3.30;1.98;;;;;;;;;;5034072;28;20116;-63
2021/08/09 13:02:45;;;;;;;4.47;2.20;;;;;;;;;;5032805;28;20046;-63
2021/08/09 13:05:31;;;;;;;7.30;2.85;;;;;;;;;;5017839;28;20049;-63
2021/08/09 13:08:16;;;;;;;4.18;1.73;;;;;;;;;;5013084;28;20408;-63
2021/08/09 13:11:02;;;;;;;6.75;2.10;;;;;;;;;;5012843;28;20432;-63
2021/08/09 13:13:47;;;;;;;3.70;1.70;;;;;;;;;;5023721;28;20180;-63
2021/08/09 13:16:34;;;;;;;4.13;2.20;;;;;;;;;;5035020;28;20128;-63
2021/08/09 13:19:20;;;;;;;3.40;1.52;;;;;;;;;;5033852;28;20057;-63
2021/08/09 13:22:05;;;;;;;4.82;2.22;;;;;;;;;;5032407;28;20054;-63
2021/08/09 13:24:51;;;;;;;5.25;2.40;;;;;;;;;;5013368;28;20057;-63
2021/08/09 13:27:36;;;;;;;4.55;1.77;;;;;;;;;;5012641;28;20423;-63
2021/08/09 13:30:21;;;;;;;4.53;2.10;;;;;;;;;;5013567;28;20127;-63
2021/08/09 13:33:07;;;;;;;3.63;1.70;;;;;;;;;;5017952;28;20053;-63
2021/08/09 13:35:52;;;;;;;3.83;2.28;;;;;;;;;;5032663;28;20057;-63
2021/08/09 13:38:37;;;;;;;5.30;1.65;;;;;;;;;;5033007;28;20131;-63
2021/08/09 13:41:23;;;;;;;2.70;1.45;;;;;;;;;;5032753;28;20048;-63
2021/08/09 13:44:08;;;;;;;5.90;1.58;;;;;;;;;;5031521;28;20076;-63
2021/08/09 13:46:53;;;;;;;4.35;1.58;;;;;;;;;;5031529;28;20581;-63
2021/08/09 13:49:39;;;;;;;3.85;1.83;;;;;;;;;;5032476;28;20534;-63
2021/08/09 13:52:24;;;;;;;6.13;1.30;;;;;;;;;;5031737;28;20051;-64
2021/08/09 13:55:09;;;;;;;5.38;1.60;;;;;;;;;;5024843;28;20052;-63
2021/08/09 13:57:55;;;;;;;3.83;1.55;;;;;;;;;;5023072;28;20071;-63
2021/08/09 14:00:40;;;;;;;5.78;1.15;;;;;;;;;;5022790;28;20040;-63
2021/08/09 14:03:25;;;;;;;3.92;1.00;;;;;;;;;;5022469;28;20052;-63
2021/08/09 14:06:11;;;;;;;4.47;1.45;;;;;;;;;;5021791;28;20049;-63
2021/08/09 14:08:56;;;;;;;3.75;1.30;;;;;;;;;;5020292;28;20420;-63
2021/08/09 14:11:41;;;;;;;4.60;1.33;;;;;;;;;;5022198;28;20117;-63
2021/08/09 14:14:27;;;;;;;3.33;1.00;;;;;;;;;;5022794;28;20096;-63
2021/08/09 14:17:12;;;;;;;4.50;1.70;;;;;;;;;;5023221;28;20068;-63
2021/08/09 14:20:03;;;;;;;2.65;1.13;;;;;;;;;;5036721;28;20056;-63
2021/08/09 14:22:53;;;;;;;3.25;1.20;;;;;;;;;;5023619;28;20041;-63
2021/08/09 14:25:38;;;;;;;4.15;1.60;;;;;;;;;;5028391;28;20052;-63
2021/08/09 14:28:25;;;;;;;4.07;1.30;;;;;;;;;;5032551;28;20048;-63
2021/08/09 14:31:10;;;;;;;3.75;1.35;;;;;;;;;;5034878;28;20057;-63
2021/08/09 14:33:56;;;;;;;2.83;1.10;;;;;;;;;;5035020;28;20061;-63
2021/08/09 14:36:42;;;;;;;3.13;1.20;;;;;;;;;;5033992;28;20048;-63
2021/08/09 14:39:27;;;;;;;2.22;0.90;;;;;;;;;;5034867;28;20075;-63
2021/08/09 14:42:19;;;;;;;1.70;1.10;;;;;;;;;;5033736;28;20053;-63
2021/08/09 14:45:08;;;;;;;2.20;1.08;;;;;;;;;;5034346;28;20071;-63
2021/08/09 14:47:55;;;;;;;4.45;1.48;;;;;;;;;;5034180;28;20048;-63
2021/08/09 14:50:41;;;;;;;3.47;1.05;;;;;;;;;;5033751;28;20164;-63
2021/08/09 14:53:26;;;;;;;4.20;1.23;;;;;;;;;;5017084;28;20061;-63
2021/08/09 14:56:13;;;;;;;2.45;0.95;;;;;;;;;;5014277;28;20060;-63
2021/08/09 14:59:07;;;;;;;5.28;1.33;;;;;;;;;;5014451;28;20048;-63
2021/08/09 15:01:53;;;;;;;4.35;1.15;;;;;;;;;;5025014;28;20048;-63
2021/08/09 15:04:38;;;;;;;3.83;1.23;;;;;;;;;;4999583;28;20050;-63
2021/08/09 15:07:32;;;;;;;4.35;1.42;;;;;;;;;;5027710;28;20048;-63
2021/08/09 15:10:22;;;;;;;3.33;1.40;;;;;;;;;;5041944;28;20510;-63
2021/08/09 15:13:07;;;;;;;1.92;1.15;;;;;;;;;;5034619;28;20057;-63
2021/08/09 15:15:53;;;;;;;3.33;1.40;;;;;;;;;;5034225;28;20052;-63
2021/08/09 15:18:39;;;;;;;4.82;1.70;;;;;;;;;;5032413;23;20042;-65
2021/08/09 15:21:24;;;;;;;2.65;1.00;;;;;;;;;;4999307;28;20046;-64
2021/08/09 15:24:09;;;;;;;3.25;1.20;;;;;;;;;;5014735;28;20045;-65
2021/08/09 15:26:54;;;;;;;3.75;1.30;;;;;;;;;;5015636;28;20420;-66
2021/08/09 15:29:40;;;;;;;2.33;0.85;;;;;;;;;;4995146;28;20057;-65
2021/08/09 15:32:25;;;;;;;4.15;1.40;;;;;;;;;;5006028;28;20156;-65
2021/08/09 15:35:10;;;;;;;2.33;0.80;;;;;;;;;;5014958;28;20057;-65
2021/08/09 15:37:56;;;;;;;9.35;2.90;;;;;;;;;;5014919;28;20057;-64
2021/08/09 15:40:41;;;;;;;2.17;1.35;;;;;;;;;;5015010;28;20046;-65
2021/08/09 15:43:27;;;;;;;1.90;1.10;;;;;;;;;;5010498;28;20050;-64
2021/08/09 15:46:12;;;;;;;3.00;1.48;;;;;;;;;;5009784;28;20131;-64
2021/08/09 15:48:58;;;;;;;2.78;1.27;;;;;;;;;;5014933;28;20048;-64
2021/08/09 15:51:43;;;;;;;2.95;1.42;;;;;;;;;;5007686;28;20095;-65
2021/08/09 15:54:28;;;;;;;2.13;1.30;;;;;;;;;;5014630;28;20501;-65
2021/08/09 15:57:16;;;;;;;3.13;1.70;;;;;;;;;;5014524;28;20044;-64
2021/08/09 16:00:01;;;;;;;3.25;1.20;;;;;;;;;;5014651;28;20057;-65
2021/08/09 16:02:47;;;;;;;2.83;1.42;;;;;;;;;;5011373;28;20072;-65
2021/08/09 16:05:32;;;;;;;3.40;1.17;;;;;;;;;;5014565;28;20488;-65
2021/08/09 16:08:18;;;;;;;3.35;1.42;;;;;;;;;;5014415;28;20096;-64
2021/08/09 16:11:03;;;;;;;4.28;1.60;;;;;;;;;;5012915;28;20064;-65
2021/08/09 16:13:48;;;;;;;2.30;1.20;;;;;;;;;;5014318;28;20046;-65
2021/08/09 16:16:34;;;;;;;4.45;1.65;;;;;;;;;;5014476;28;20065;-65
2021/08/09 16:19:19;;;;;;;2.50;1.35;;;;;;;;;;5012910;28;20049;-65
2021/08/09 16:22:04;;;;;;;9.73;1.48;;;;;;;;;;5012560;28;20046;-65
2021/08/09 16:24:50;;;;;;;3.58;1.23;;;;;;;;;;5014079;28;20046;-65
2021/08/09 16:27:35;;;;;;;4.13;1.70;;;;;;;;;;5013289;28;20046;-65
2021/08/09 16:30:21;;;;;;;3.58;1.42;;;;;;;;;;5014146;28;20053;-65
2021/08/09 16:33:07;;;;;;;2.08;1.45;;;;;;;;;;5012594;28;20049;-64